createdAt,value
2022-11-01T00:02:13.617Z,95930.09
2022-11-01T00:04:47.230Z,95927.50
2022-11-01T00:07:14.897Z,95924.66
2022-11-01T00:09:42.872Z,95920.03
2022-11-01T00:12:12.676Z,95922.88
2022-11-01T00:14:40.279Z,95917.22
2022-11-01T00:17:09.064Z,95918.63
2022-11-01T00:19:36.602Z,95921.88
2022-11-01T00:22:04.422Z,95913.38
2022-11-01T00:24:33.892Z,95908.78
2022-11-01T00:27:01.819Z,95909.41
2022-11-01T00:29:35.511Z,95909.41
2022-11-01T00:32:02.878Z,95908.19
2022-11-01T00:34:30.326Z,95915.88
2022-11-01T00:36:57.532Z,95906.34
2022-11-01T00:39:30.636Z,95906.56
2022-11-01T00:41:58.867Z,95903.13
2022-11-01T00:44:26.149Z,95906.16
2022-11-01T00:46:53.441Z,95895.03
2022-11-01T00:49:21.180Z,95902.94
2022-11-01T00:51:48.265Z,95912.66
2022-11-01T00:54:16.858Z,95919.75
2022-11-01T00:56:43.837Z,95922.38
2022-11-01T00:59:10.988Z,95926.41
2022-11-01T01:01:38.853Z,95908.97
2022-11-01T01:04:09.148Z,95913.59
2022-11-01T01:06:36.435Z,95913.19
2022-11-01T01:09:04.354Z,95929.00
2022-11-01T01:11:31.603Z,95917.44
2022-11-01T01:13:58.736Z,95927.78
2022-11-01T01:16:25.969Z,95935.44
2022-11-01T01:18:53.370Z,95928.56
2022-11-01T01:21:25.108Z,95936.91
2022-11-01T01:23:58.651Z,95942.16
2022-11-01T01:26:25.756Z,95941.34
2022-11-01T01:28:56.198Z,95934.03
2022-11-01T01:31:23.386Z,95933.19
2022-11-01T01:33:50.187Z,95925.88
2022-11-01T01:36:16.958Z,95911.28
2022-11-01T01:38:44.128Z,95928.72
2022-11-01T01:41:29.640Z,95912.91
2022-11-01T01:43:56.408Z,95924.25
2022-11-01T01:46:23.178Z,95917.38
2022-11-01T01:48:55.037Z,95910.28
2022-11-01T01:51:26.495Z,95914.94
2022-11-01T01:53:55.244Z,95909.88
2022-11-01T01:56:33.230Z,95910.63
2022-11-01T01:59:07.861Z,95903.97
2022-11-01T02:01:37.770Z,95913.06
2022-11-01T02:04:10.604Z,95902.72
2022-11-01T02:06:39.466Z,95905.97
2022-11-01T02:09:08.774Z,95893.44
2022-11-01T02:11:36.363Z,95888.38
2022-11-01T02:14:04.005Z,95884.09
2022-11-01T02:16:33.714Z,95886.91
2022-11-01T02:19:24.861Z,95880.84
2022-11-01T02:22:00.992Z,95887.34
2022-11-01T02:24:33.777Z,95879.22
2022-11-01T02:27:11.331Z,95874.59
2022-11-01T02:30:05.909Z,95865.84
2022-11-01T02:32:42.700Z,95870.13
2022-11-01T02:35:36.468Z,95867.47
2022-11-01T02:38:19.308Z,95863.84
2022-11-01T02:40:58.117Z,95855.31
2022-11-01T02:43:35.234Z,95866.91
2022-11-01T02:46:25.761Z,95874.34
2022-11-01T02:48:53.516Z,95873.13
2022-11-01T02:51:22.514Z,95885.28
2022-11-01T02:53:49.225Z,95880.03
2022-11-01T02:56:17.659Z,95889.13
2022-11-01T02:58:46.921Z,95898.47
2022-11-01T03:01:21.564Z,95914.06
2022-11-01T03:03:52.151Z,95920.72
2022-11-01T03:06:42.569Z,95918.25
2022-11-01T03:09:12.022Z,95913.94
2022-11-01T03:11:55.276Z,95918.38
2022-11-01T03:14:34.048Z,95941.91
2022-11-01T03:17:19.567Z,95948.13
2022-11-01T03:19:56.716Z,95944.88
2022-11-01T03:22:37.405Z,95952.19
2022-11-01T03:25:27.352Z,95965.56
2022-11-01T03:28:01.363Z,95961.56
2022-11-01T03:30:31.556Z,95961.19
2022-11-01T03:32:58.767Z,95972.47
2022-11-01T03:35:30.776Z,95963.81
2022-11-01T03:38:04.682Z,95960.06
2022-11-01T03:40:34.406Z,95969.66
2022-11-01T03:43:05.206Z,95973.06
2022-11-01T03:45:35.440Z,95982.88
2022-11-01T03:48:02.828Z,95969.00
2022-11-01T03:50:29.982Z,95970.34
2022-11-01T03:52:57.209Z,95971.00
2022-11-01T03:55:24.988Z,95984.25
2022-11-01T03:57:54.468Z,95980.56
2022-11-01T04:00:25.854Z,95964.13
2022-11-01T04:02:54.206Z,95965.25
2022-11-01T04:05:22.766Z,95955.59
2022-11-01T04:07:51.447Z,95961.72
2022-11-01T04:10:19.580Z,95961.56
2022-11-01T04:12:48.425Z,95967.13
2022-11-01T04:15:35.199Z,95952.56
2022-11-01T04:18:42.749Z,95962.13
2022-11-01T04:21:12.380Z,95953.31
2022-11-01T04:23:39.480Z,95962.41
2022-11-01T04:26:07.626Z,95953.16
2022-11-01T04:28:34.512Z,95956.16
2022-11-01T04:31:01.332Z,95938.13
2022-11-01T04:33:28.071Z,95952.16
2022-11-01T04:35:54.843Z,95949.72
2022-11-01T04:38:21.820Z,95956.00
2022-11-01T04:40:49.212Z,95951.78
2022-11-01T04:43:16.019Z,95940.69
2022-11-01T04:45:42.836Z,95948.41
2022-11-01T04:48:13.679Z,95940.31
2022-11-01T04:50:40.767Z,95951.66
2022-11-01T04:53:08.480Z,95939.34
2022-11-01T04:55:35.402Z,95952.13
2022-11-01T04:58:02.191Z,95956.19
2022-11-01T05:00:28.933Z,95952.13
2022-11-01T05:03:07.043Z,95956.22
2022-11-01T05:05:35.176Z,95958.66
2022-11-01T05:08:04.717Z,95950.97
2022-11-01T05:10:32.988Z,95955.22
2022-11-01T05:13:00.733Z,95960.06
2022-11-01T05:15:27.940Z,95951.78
2022-11-01T05:17:54.687Z,95960.31
2022-11-01T05:20:21.527Z,95954.63
2022-11-01T05:22:49.113Z,95956.84
2022-11-01T05:25:18.021Z,95967.22
2022-11-01T05:27:44.781Z,95960.91
2022-11-01T05:30:12.196Z,95970.25
2022-11-01T05:32:39.011Z,95966.03
2022-11-01T05:35:06.383Z,95971.91
2022-11-01T05:37:33.277Z,95972.31
2022-11-01T05:39:59.997Z,95973.06
2022-11-01T05:42:27.001Z,95984.22
2022-11-01T05:44:53.726Z,95986.06
2022-11-01T05:47:20.458Z,95989.50
2022-11-01T05:49:47.157Z,95991.28
2022-11-01T05:52:13.899Z,95993.94
2022-11-01T05:54:40.627Z,95996.94
2022-11-01T05:57:07.389Z,95995.94
2022-11-01T05:59:34.338Z,96003.22
2022-11-01T06:02:01.163Z,96003.22
2022-11-01T06:04:28.014Z,96003.47
2022-11-01T06:06:54.754Z,96005.69
2022-11-01T06:09:21.511Z,96018.25
2022-11-01T06:12:04.556Z,96016.41
2022-11-01T06:14:31.314Z,96027.78
2022-11-01T06:16:58.096Z,96024.09
2022-11-01T06:19:24.836Z,96032.41
2022-11-01T06:21:51.739Z,96026.94
2022-11-01T06:24:18.460Z,96033.63
2022-11-01T06:26:45.279Z,96038.91
2022-11-01T06:29:11.969Z,96047.06
2022-11-01T06:31:39.380Z,96043.41
2022-11-01T06:34:06.093Z,96045.03
2022-11-01T06:36:32.853Z,96053.75
2022-11-01T06:38:59.644Z,96051.75
2022-11-01T06:41:26.433Z,96057.81
2022-11-01T06:43:53.220Z,96053.16
2022-11-01T06:46:20.068Z,96055.22
2022-11-01T06:48:49.918Z,96058.28
2022-11-01T06:51:16.864Z,96077.38
2022-11-01T06:53:43.656Z,96077.16
2022-11-01T06:56:10.409Z,96073.16
2022-11-01T06:58:37.125Z,96076.38
2022-11-01T07:01:04.218Z,96082.09
2022-11-01T07:03:30.995Z,96078.25
2022-11-01T07:06:00.797Z,96073.59
2022-11-01T07:08:27.544Z,96071.16
2022-11-01T07:10:54.348Z,96080.47
2022-11-01T07:13:21.321Z,96091.63
2022-11-01T07:15:48.262Z,96084.97
2022-11-01T07:18:15.029Z,96090.66
2022-11-01T07:20:42.232Z,96082.75
2022-11-01T07:23:15.651Z,96081.75
2022-11-01T07:25:43.228Z,96087.44
2022-11-01T07:28:10.596Z,96085.84
2022-11-01T07:30:37.539Z,96097.22
2022-11-01T07:33:05.538Z,96102.72
2022-11-01T07:35:32.915Z,96097.69
2022-11-01T07:38:02.758Z,96105.78
2022-11-01T07:40:32.119Z,96112.69
2022-11-01T07:43:00.392Z,96129.75
2022-11-01T07:45:29.587Z,96140.91
2022-11-01T07:48:02.876Z,96141.53
2022-11-01T07:50:31.519Z,96149.06
2022-11-01T07:53:01.290Z,96160.22
2022-11-01T07:55:46.845Z,96150.28
2022-11-01T07:58:15.126Z,96148.09
2022-11-01T08:00:42.849Z,96150.09
2022-11-01T08:03:17.667Z,96156.16
2022-11-01T08:05:45.711Z,96153.34
2022-11-01T08:08:13.033Z,96149.88
2022-11-01T08:10:40.635Z,96140.97
2022-11-01T08:13:24.862Z,96147.28
2022-11-01T08:15:53.388Z,96148.50
2022-11-01T08:18:22.705Z,96143.03
2022-11-01T08:20:49.731Z,96150.75
2022-11-01T08:23:16.972Z,96150.53
2022-11-01T08:25:44.786Z,96161.28
2022-11-01T08:28:17.570Z,96169.41
2022-11-01T08:30:46.386Z,96166.56
2022-11-01T08:33:13.274Z,96164.75
2022-11-01T08:35:40.092Z,96176.13
2022-11-01T08:38:06.970Z,96170.63
2022-11-01T08:40:34.184Z,96174.09
2022-11-01T08:43:01.600Z,96173.69
2022-11-01T08:45:28.856Z,96174.31
2022-11-01T08:48:00.426Z,96175.31
2022-11-01T08:50:28.269Z,96181.81
2022-11-01T08:52:55.286Z,96185.47
2022-11-01T08:55:23.027Z,96199.91
2022-11-01T08:57:50.534Z,96186.69
2022-11-01T09:00:17.964Z,96190.13
2022-11-01T09:02:44.899Z,96189.34
2022-11-01T09:05:11.685Z,96195.28
2022-11-01T09:07:39.197Z,96194.84
2022-11-01T09:10:06.878Z,96198.13
2022-11-01T09:12:34.212Z,96192.88
2022-11-01T09:15:00.988Z,96187.59
2022-11-01T09:17:28.190Z,96200.38
2022-11-01T09:19:55.172Z,96199.13
2022-11-01T09:22:22.889Z,96193.63
2022-11-01T09:24:49.684Z,96199.75
2022-11-01T09:27:16.474Z,96196.47
2022-11-01T09:29:45.358Z,96207.47
2022-11-01T09:32:15.082Z,96202.22
2022-11-01T09:34:41.794Z,96206.06
2022-11-01T09:37:08.521Z,96223.72
2022-11-01T09:39:35.245Z,96213.59
2022-11-01T09:42:05.976Z,96215.63
2022-11-01T09:44:39.209Z,96226.41
2022-11-01T09:47:16.665Z,96223.34
2022-11-01T09:49:47.281Z,96234.50
2022-11-01T09:52:23.326Z,96238.19
2022-11-01T09:54:50.372Z,96253.78
2022-11-01T09:57:26.743Z,96243.44
2022-11-01T10:00:01.535Z,96244.19
2022-11-01T10:03:05.038Z,96243.31
2022-11-01T10:05:48.568Z,96244.28
2022-11-01T10:08:27.320Z,96246.69
2022-11-01T10:11:00.360Z,96239.78
2022-11-01T10:14:06.125Z,96254.34
2022-11-01T10:16:37.820Z,96245.81
2022-11-01T10:19:26.950Z,96248.66
2022-11-01T10:22:03.297Z,96246.63
2022-11-01T10:24:41.914Z,96255.56
2022-11-01T10:27:43.056Z,96253.72
2022-11-01T10:30:16.105Z,96242.75
2022-11-01T10:33:06.587Z,96237.69
2022-11-01T10:35:41.835Z,96222.06
2022-11-01T10:38:35.148Z,96216.78
2022-11-01T10:41:30.050Z,96219.22
2022-11-01T10:44:01.187Z,96202.00
2022-11-01T10:46:32.307Z,96218.25
2022-11-01T10:49:03.444Z,96221.72
2022-11-01T10:51:33.737Z,96222.16
2022-11-01T10:54:06.116Z,96231.69
2022-11-01T10:56:44.747Z,96231.31
2022-11-01T10:59:27.469Z,96241.84
2022-11-01T11:01:56.142Z,96243.44
2022-11-01T11:04:25.063Z,96234.72
2022-11-01T11:06:52.532Z,96236.13
2022-11-01T11:09:28.292Z,96231.31
2022-11-01T11:12:18.582Z,96230.09
2022-11-01T11:14:53.309Z,96235.13
2022-11-01T11:17:26.534Z,96243.44
2022-11-01T11:19:53.737Z,96245.88
2022-11-01T11:22:22.994Z,96247.72
2022-11-01T11:24:52.851Z,96245.84
2022-11-01T11:27:26.128Z,96242.00
2022-11-01T11:29:57.798Z,96245.44
2022-11-01T11:32:30.782Z,96255.59
2022-11-01T11:35:05.645Z,96250.31
2022-11-01T11:37:35.084Z,96241.78
2022-11-01T11:40:22.407Z,96251.72
2022-11-01T11:42:50.346Z,96241.56
2022-11-01T11:45:24.125Z,96235.72
2022-11-01T11:47:51.400Z,96238.34
2022-11-01T11:50:21.167Z,96233.72
2022-11-01T11:52:50.318Z,96241.84
2022-11-01T11:55:36.673Z,96252.22
2022-11-01T11:58:06.161Z,96245.09
2022-11-01T12:00:37.742Z,96241.06
2022-11-01T12:03:06.845Z,96237.84
2022-11-01T12:05:34.952Z,96246.41
2022-11-01T12:08:01.825Z,96243.59
2022-11-01T12:10:35.976Z,96248.06
2022-11-01T12:13:18.196Z,96252.13
2022-11-01T12:15:44.951Z,96244.84
2022-11-01T12:18:18.890Z,96242.41
2022-11-01T12:20:50.926Z,96243.19
2022-11-01T12:23:26.927Z,96237.50
2022-11-01T12:25:55.410Z,96242.38
2022-11-01T12:28:46.851Z,96247.06
2022-11-01T12:31:18.143Z,96248.88
2022-11-01T12:34:06.808Z,96257.56
2022-11-01T12:36:44.296Z,96269.88
2022-11-01T12:39:32.315Z,96262.13
2022-11-01T12:42:04.021Z,96265.78
2022-11-01T12:44:35.923Z,96278.34
2022-11-01T12:47:05.584Z,96267.16
2022-11-01T12:49:47.283Z,96268.75
2022-11-01T12:52:27.219Z,96275.19
2022-11-01T12:55:33.129Z,96273.53
2022-11-01T12:58:00.073Z,96267.66
2022-11-01T13:01:09.753Z,96268.91
2022-11-01T13:04:15.136Z,96271.97
2022-11-01T13:07:12.809Z,96266.47
2022-11-01T13:09:45.345Z,96275.41
2022-11-01T13:12:36.456Z,96270.56
2022-11-01T13:15:25.573Z,96276.66
2022-11-01T13:18:29.308Z,96272.59
2022-11-01T13:20:59.195Z,96276.59
2022-11-01T13:23:35.876Z,96272.53
2022-11-01T13:26:42.808Z,96277.19
2022-11-01T13:29:17.743Z,96279.41
2022-11-01T13:32:02.135Z,96281.84
2022-11-01T13:34:52.241Z,96282.28
2022-11-01T13:37:32.840Z,96280.66
2022-11-01T13:40:20.685Z,96287.78
2022-11-01T13:42:59.518Z,96288.59
2022-11-01T13:45:26.501Z,96298.53
2022-11-01T13:48:02.486Z,96299.72
2022-11-01T13:50:38.838Z,96294.63
2022-11-01T13:53:25.813Z,96299.91
2022-11-01T13:56:10.696Z,96308.66
2022-11-01T13:58:41.312Z,96298.84
2022-11-01T14:01:27.016Z,96287.69
2022-11-01T14:04:15.051Z,96288.66
2022-11-01T14:06:43.528Z,96288.88
2022-11-01T14:09:30.422Z,96291.31
2022-11-01T14:12:10.193Z,96289.88
2022-11-01T14:14:38.769Z,96296.94
2022-11-01T14:17:20.631Z,96300.78
2022-11-01T14:19:48.657Z,96296.16
2022-11-01T14:22:33.679Z,96294.72
2022-11-01T14:25:02.842Z,96298.53
2022-11-01T14:27:32.483Z,96294.47
2022-11-01T14:29:59.363Z,96286.97
2022-11-01T14:32:29.082Z,96291.88
2022-11-01T14:35:00.102Z,96293.88
2022-11-01T14:37:33.612Z,96291.03
2022-11-01T14:40:29.464Z,96285.03
2022-11-01T14:43:04.081Z,96283.81
2022-11-01T14:45:44.670Z,96276.53
2022-11-01T14:48:57.877Z,96280.56
2022-11-01T14:51:41.543Z,96285.19
2022-11-01T14:54:20.361Z,96285.19
2022-11-01T14:56:52.985Z,96292.31
2022-11-01T14:59:20.904Z,96289.03
2022-11-01T15:01:51.016Z,96291.81
2022-11-01T15:04:27.420Z,96290.38
2022-11-01T15:06:54.276Z,96288.56
2022-11-01T15:09:24.147Z,96293.41
2022-11-01T15:11:54.118Z,96288.69
2022-11-01T15:14:25.034Z,96294.38
2022-11-01T15:16:52.201Z,96289.84
2022-11-01T15:19:27.978Z,96301.38
2022-11-01T15:22:01.127Z,96304.41
2022-11-01T15:24:27.997Z,96301.34
2022-11-01T15:26:54.862Z,96303.72
2022-11-01T15:29:24.902Z,96306.56
2022-11-01T15:31:59.361Z,96313.72
2022-11-01T15:34:30.781Z,96322.59
2022-11-01T15:37:01.224Z,96318.47
2022-11-01T15:39:32.043Z,96307.91
2022-11-01T15:41:58.905Z,96307.50
2022-11-01T15:44:28.851Z,96305.50
2022-11-01T15:46:59.423Z,96318.06
2022-11-01T15:49:32.135Z,96320.50
2022-11-01T15:52:03.015Z,96317.69
2022-11-01T15:54:32.619Z,96315.41
2022-11-01T15:57:04.545Z,96320.81
2022-11-01T16:00:05.612Z,96323.63
2022-11-01T16:02:45.148Z,96322.56
2022-11-01T16:05:23.354Z,96322.31
2022-11-01T16:07:50.704Z,96323.47
2022-11-01T16:10:22.536Z,96327.50
2022-11-01T16:12:50.378Z,96332.13
2022-11-01T16:15:22.687Z,96328.06
2022-11-01T16:17:49.770Z,96329.81
2022-11-01T16:20:34.281Z,96329.53
2022-11-01T16:23:14.663Z,96340.06
2022-11-01T16:25:41.428Z,96343.44
2022-11-01T16:28:10.860Z,96342.78
2022-11-01T16:30:48.373Z,96351.53
2022-11-01T16:33:23.463Z,96356.16
2022-11-01T16:35:54.052Z,96358.69
2022-11-01T16:38:43.418Z,96364.50
2022-11-01T16:41:22.178Z,96367.13
2022-11-01T16:43:53.961Z,96361.50
2022-11-01T16:46:24.282Z,96372.63
2022-11-01T16:48:57.123Z,96367.56
2022-11-01T16:51:28.800Z,96377.84
2022-11-01T16:54:00.507Z,96374.56
2022-11-01T16:56:36.719Z,96386.88
2022-11-01T16:59:27.208Z,96392.97
2022-11-01T17:01:58.190Z,96388.06
2022-11-01T17:04:27.022Z,96396.34
2022-11-01T17:06:55.348Z,96398.16
2022-11-01T17:09:25.236Z,96408.22
2022-11-01T17:11:53.921Z,96406.97
2022-11-01T17:14:22.081Z,96396.91
2022-11-01T17:16:51.028Z,96401.41
2022-11-01T17:19:22.900Z,96396.41
2022-11-01T17:21:51.198Z,96407.59
2022-11-01T17:24:22.610Z,96405.16
2022-11-01T17:26:50.606Z,96403.69
2022-11-01T17:29:17.359Z,96404.59
2022-11-01T17:31:44.178Z,96416.66
2022-11-01T17:34:10.971Z,96411.72
2022-11-01T17:36:39.925Z,96420.78
2022-11-01T17:39:10.110Z,96418.53
2022-11-01T17:41:36.951Z,96418.59
2022-11-01T17:44:03.754Z,96416.97
2022-11-01T17:46:30.475Z,96417.13
2022-11-01T17:48:57.188Z,96416.88
2022-11-01T17:51:24.018Z,96414.41
2022-11-01T17:53:57.673Z,96414.13
2022-11-01T17:56:25.413Z,96423.00
2022-11-01T17:58:53.780Z,96427.47
2022-11-01T18:01:21.784Z,96412.84
2022-11-01T18:03:48.980Z,96426.63
2022-11-01T18:06:16.307Z,96419.66
2022-11-01T18:08:46.654Z,96431.03
2022-11-01T18:11:13.325Z,96426.31
2022-11-01T18:13:58.479Z,96425.00
2022-11-01T18:16:32.873Z,96422.47
2022-11-01T18:19:13.784Z,96425.28
2022-11-01T18:21:43.354Z,96428.75
2022-11-01T18:24:21.267Z,96436.84
2022-11-01T18:26:49.263Z,96430.28
2022-11-01T18:29:21.699Z,96433.09
2022-11-01T18:32:09.546Z,96431.31
2022-11-01T18:34:49.259Z,96429.22
2022-11-01T18:37:26.504Z,96426.97
2022-11-01T18:40:02.576Z,96428.13
2022-11-01T18:42:30.318Z,96436.53
2022-11-01T18:45:16.017Z,96438.19
2022-11-01T18:47:49.663Z,96442.97
2022-11-01T18:50:23.609Z,96443.34
2022-11-01T18:53:06.871Z,96435.28
2022-11-01T18:55:33.939Z,96447.59
2022-11-01T18:58:27.622Z,96437.59
2022-11-01T19:01:13.567Z,96449.41
2022-11-01T19:03:41.265Z,96450.88
2022-11-01T19:06:16.639Z,96451.34
2022-11-01T19:08:47.224Z,96448.88
2022-11-01T19:11:14.051Z,96449.22
2022-11-01T19:13:41.743Z,96444.81
2022-11-01T19:16:11.613Z,96448.75
2022-11-01T19:18:42.277Z,96449.91
2022-11-01T19:21:19.159Z,96446.50
2022-11-01T19:23:51.801Z,96446.66
2022-11-01T19:26:25.850Z,96453.25
2022-11-01T19:28:53.153Z,96454.88
2022-11-01T19:31:39.163Z,96445.38
2022-11-01T19:34:16.608Z,96448.03
2022-11-01T19:36:44.672Z,96445.56
2022-11-01T19:39:31.271Z,96438.53
2022-11-01T19:42:13.968Z,96451.97
2022-11-01T19:44:40.880Z,96442.47
2022-11-01T19:47:30.219Z,96450.81
2022-11-01T19:49:56.982Z,96455.41
2022-11-01T19:52:37.226Z,96455.59
2022-11-01T19:55:36.175Z,96449.88
2022-11-01T19:58:22.626Z,96447.56
2022-11-01T20:00:49.911Z,96462.22
2022-11-01T20:03:26.716Z,96459.06
2022-11-01T20:05:54.666Z,96453.03
2022-11-01T20:08:25.865Z,96457.47
2022-11-01T20:10:52.619Z,96460.91
2022-11-01T20:13:19.697Z,96463.03
2022-11-01T20:15:47.179Z,96462.88
2022-11-01T20:18:13.948Z,96459.91
2022-11-01T20:20:44.019Z,96466.47
2022-11-01T20:23:27.495Z,96468.78
2022-11-01T20:25:55.253Z,96472.72
2022-11-01T20:28:22.176Z,96466.50
2022-11-01T20:30:48.890Z,96467.16
2022-11-01T20:33:16.322Z,96462.22
2022-11-01T20:35:43.495Z,96465.72
2022-11-01T20:38:10.323Z,96461.28
2022-11-01T20:40:37.161Z,96455.84
2022-11-01T20:43:04.666Z,96459.50
2022-11-01T20:45:31.797Z,96461.59
2022-11-01T20:47:58.540Z,96458.69
2022-11-01T20:50:25.386Z,96454.59
2022-11-01T20:52:52.528Z,96453.63
2022-11-01T20:55:20.007Z,96464.44
2022-11-01T20:57:47.371Z,96460.00
2022-11-01T21:00:15.965Z,96457.09
2022-11-01T21:02:43.318Z,96451.84
2022-11-01T21:05:28.672Z,96449.56
2022-11-01T21:08:25.404Z,96446.28
2022-11-01T21:11:18.186Z,96447.44
2022-11-01T21:13:45.815Z,96449.06
2022-11-01T21:16:30.641Z,96450.53
2022-11-01T21:19:02.245Z,96453.16
2022-11-01T21:21:32.533Z,96456.78
2022-11-01T21:24:00.997Z,96464.47
2022-11-01T21:26:33.940Z,96468.25
2022-11-01T21:29:14.618Z,96475.44
2022-11-01T21:31:42.590Z,96473.81
2022-11-01T21:34:10.166Z,96481.66
2022-11-01T21:36:42.233Z,96477.91
2022-11-01T21:39:19.305Z,96483.16
2022-11-01T21:41:51.354Z,96472.47
2022-11-01T21:44:28.673Z,96479.38
2022-11-01T21:47:08.622Z,96479.72
2022-11-01T21:49:36.677Z,96481.84
2022-11-01T21:52:06.399Z,96474.78
2022-11-01T21:54:35.814Z,96471.88
2022-11-01T21:57:04.568Z,96473.47
2022-11-01T21:59:31.549Z,96478.72
2022-11-01T22:02:01.366Z,96475.13
2022-11-01T22:04:32.715Z,96467.06
2022-11-01T22:07:01.898Z,96470.69
2022-11-01T22:09:29.274Z,96471.00
2022-11-01T22:11:56.328Z,96473.47
2022-11-01T22:14:24.043Z,96467.91
2022-11-01T22:16:50.896Z,96473.47
2022-11-01T22:19:17.809Z,96468.22
2022-11-01T22:24:16.265Z,96468.38
2022-11-01T22:26:42.931Z,96466.25
2022-11-01T22:29:09.702Z,96467.91
2022-11-01T22:31:36.528Z,96476.06
2022-11-01T22:34:03.364Z,96479.97
2022-11-01T22:36:34.694Z,96474.59
2022-11-01T22:39:06.760Z,96475.09
2022-11-01T22:41:35.595Z,96479.34
2022-11-01T22:44:10.379Z,96476.25
2022-11-01T22:46:55.068Z,96476.56
2022-11-01T22:49:42.016Z,96484.41
2022-11-01T22:52:30.250Z,96475.06
2022-11-01T22:55:36.164Z,96465.09
2022-11-01T22:58:16.817Z,96475.06
2022-11-01T23:00:46.358Z,96472.47
2022-11-01T23:03:28.882Z,96467.34
2022-11-01T23:05:58.930Z,96478.19
2022-11-01T23:08:37.247Z,96483.06
2022-11-01T23:11:05.299Z,96472.75
2022-11-01T23:13:53.382Z,96471.28
2022-11-01T23:16:30.227Z,96470.75
2022-11-01T23:18:59.471Z,96473.84
2022-11-01T23:21:27.653Z,96477.97
2022-11-01T23:23:54.937Z,96473.69
2022-11-01T23:26:23.598Z,96477.78
2022-11-01T23:28:52.969Z,96478.44
2022-11-01T23:31:21.088Z,96483.81
2022-11-01T23:33:50.019Z,96483.19
2022-11-01T23:36:29.083Z,96489.22
2022-11-01T23:41:41.612Z,96485.09
2022-11-01T23:44:30.932Z,96490.00
2022-11-01T23:47:12.929Z,96488.69
2022-11-01T23:49:39.824Z,96486.53
2022-11-01T23:52:26.761Z,96488.19
2022-11-01T23:54:53.631Z,96496.63
2022-11-01T23:57:21.730Z,96483.06
2022-11-01T23:59:51.003Z,96488.94
